Other Surface Observations
Issued by NWS Great Falls, MT

Home | Current Version | Previous Version | Graphics & Text | Print | Product List | Glossary On
Versions: 1 2 3 4 5 6 7 8 9 10 11 12 13 14 15 16 17 18 19 20 21 22 23 24 25 26 27 28 29 30 31 32 33 34 35 36 37 38 39 40 41 42 43 44 45 46 47 48 49 50
000
SXUS55 KTFX 220359
OSOTFX
AREA AWOS OBSERVATIONS
NATIONAL WEATHER SERVICE GREAT FALLS MT
0959 PM MDT MON AUG 21 2017

METAR KPWD 220400Z AUTO 00000KT 10SM 14/01 A3016 RMK PLENTYWOOD
METAR KS71 220400Z AUTO 00000KT 10SM 16/08 A3015 RMK CHINOOK
METAR K38S 220400Z AUTO 26004KT 10SM 17/03 A3023 RMK DEER LODGE
METAR K3U3 220400Z AUTO 23005KT 10SM 17/02 A3023 RMK ANACONDA
METAR K6S5 220400Z AUTO 00000KT 8SM 16/07 A3016 RMK HAMILTON
METAR KS59 220400Z AUTO 16003KT 10SM 20/06 A3009 RMK LIBBY
METAR K88M 220400Z AUTO 10SM 19/04 A3010 RMK EUREKA



USA.gov is the U.S. government's official web portal to all federal, state and local government web resources and services.